Time;durP1;ratioP1;P1;durP2;ratioP2;P2;SDS_P1;SDS_P2;PMS_P1;PMS_P2;Temp;Humidity;BMP_temperature;BMP_pressure;BME280_temperature;BME280_humidity;BME280_pressure;Samples;Min_cycle;Max_cycle;Signal;HPM_P1;HPM_P2
2021/03/18 00:00:59;;;;;;;15.57;13.93;;;1.60;99.90;;;2.42;91.30;98566.06;5207602;28;20199;-56
2021/03/18 00:03:34;;;;;;;15.43;13.93;;;1.60;99.90;;;2.36;91.06;98565.44;5201084;28;20197;-60
2021/03/18 00:06:08;;;;;;;15.03;13.63;;;1.50;99.90;;;2.37;91.23;98569.75;5208171;28;20237;-57
2021/03/18 00:08:41;;;;;;;15.87;13.97;;;1.50;99.90;;;2.37;91.11;98567.22;5187006;28;20199;-59
2021/03/18 00:11:17;;;;;;;16.77;14.30;;;1.50;99.90;;;2.32;91.41;98563.34;5187924;28;20205;-58
2021/03/18 00:13:49;;;;;;;17.43;15.43;;;1.50;99.90;;;2.43;91.32;98565.31;5190498;28;20202;-60
2021/03/18 00:16:22;;;;;;;17.30;15.47;;;1.60;99.90;;;2.46;90.65;98558.97;5187728;28;20201;-57
2021/03/18 00:18:55;;;;;;;17.50;15.70;;;1.50;99.90;;;2.60;90.06;98561.94;5192645;28;20594;-59
2021/03/18 00:21:27;;;;;;;17.87;16.13;;;1.60;99.90;;;2.51;90.56;98556.88;5208033;28;20552;-58
2021/03/18 00:23:59;;;;;;;17.73;16.03;;;1.60;99.90;;;2.51;90.68;98554.34;5194520;28;20195;-57
2021/03/18 00:26:33;;;;;;;20.87;16.67;;;1.60;99.90;;;2.42;90.67;98550.91;5187103;28;20229;-60
2021/03/18 00:29:06;;;;;;;22.90;19.87;;;1.60;99.90;;;2.38;90.97;98553.88;5187254;28;20202;-58
2021/03/18 00:31:50;;;;;;;22.60;20.23;;;1.60;99.90;;;2.31;91.12;98559.03;5187511;28;20235;-59
2021/03/18 00:34:23;;;;;;;23.13;20.63;;;1.50;99.90;;;2.24;91.66;98557.56;5189127;28;20281;-59
2021/03/18 00:36:55;;;;;;;24.50;21.43;;;1.50;99.90;;;2.23;91.40;98559.19;5193941;28;20297;-57
2021/03/18 00:39:27;;;;;;;28.30;22.40;;;1.50;99.90;;;2.24;91.63;98552.50;5186792;28;20201;-57
2021/03/18 00:42:00;;;;;;;26.40;21.93;;;1.50;99.90;;;2.24;92.07;98550.88;5186324;28;20209;-56
2021/03/18 00:44:32;;;;;;;25.63;21.27;;;1.40;99.90;;;2.22;91.90;98546.41;5185765;28;20278;-58
2021/03/18 00:47:05;;;;;;;26.23;22.33;;;1.40;99.90;;;2.24;91.82;98548.34;5186030;28;20710;-57
2021/03/18 00:49:37;;;;;;;24.63;20.60;;;1.40;99.90;;;2.33;91.40;98542.44;5187589;28;20198;-56
2021/03/18 00:52:10;;;;;;;27.00;22.70;;;1.40;99.90;;;2.32;91.10;98549.13;5186439;28;20207;-56
2021/03/18 00:54:42;;;;;;;30.60;22.77;;;1.40;99.90;;;2.27;91.51;98549.41;5186595;28;20198;-57
2021/03/18 00:57:14;;;;;;;26.00;21.47;;;1.40;99.90;;;2.30;92.21;98544.66;5200654;28;20223;-57
2021/03/18 00:59:46;;;;;;;21.93;19.30;;;1.40;99.90;;;2.25;91.47;98540.03;5203571;28;20213;-57
2021/03/18 01:02:19;;;;;;;23.83;19.93;;;1.40;99.90;;;2.28;91.62;98541.09;5201173;28;20213;-58
2021/03/18 01:04:51;;;;;;;21.37;18.33;;;1.40;99.90;;;2.23;91.48;98544.06;5204297;28;20198;-59
2021/03/18 01:07:23;;;;;;;20.20;17.27;;;1.40;99.90;;;2.31;91.31;98547.31;5186322;28;20222;-57
2021/03/18 01:09:55;;;;;;;20.97;18.17;;;1.50;99.90;;;2.32;91.01;98546.59;5186528;28;20202;-58
2021/03/18 01:12:27;;;;;;;20.83;18.17;;;1.50;99.90;;;2.28;91.84;98539.44;5186377;28;20201;-57
2021/03/18 01:14:59;;;;;;;17.63;15.77;;;1.40;99.90;;;2.37;90.86;98536.94;5187446;28;20684;-57
2021/03/18 01:17:33;;;;;;;18.93;15.47;;;1.30;99.90;;;2.40;90.40;98538.13;5186103;28;20272;-59
2021/03/18 01:20:11;;;;;;;18.87;16.47;;;1.40;99.90;;;2.36;90.66;98527.63;5197020;28;20229;-56
2021/03/18 01:22:43;;;;;;;18.57;15.87;;;1.40;99.90;;;2.29;90.19;98522.69;5202461;28;20467;-58
2021/03/18 01:25:15;;;;;;;19.83;16.97;;;1.40;99.90;;;2.26;90.75;98533.34;5185857;28;20220;-58
2021/03/18 01:27:47;;;;;;;18.60;16.70;;;1.40;99.90;;;2.28;91.15;98534.41;5196637;28;20218;-57
2021/03/18 01:30:23;;;;;;;20.27;18.17;;;1.40;99.90;;;2.33;91.39;98530.72;5198630;28;20208;-57
2021/03/18 01:32:56;;;;;;;18.20;15.37;;;1.40;99.90;;;2.42;89.98;98531.63;5197654;28;20201;-56
2021/03/18 01:35:28;;;;;;;16.03;14.10;;;1.30;99.90;;;2.37;89.71;98531.91;5201620;28;20199;-57
2021/03/18 01:38:03;;;;;;;16.60;14.37;;;1.30;99.90;;;2.12;89.22;98529.47;5186708;28;20288;-59
2021/03/18 01:40:35;;;;;;;17.77;15.13;;;1.30;99.90;;;2.04;90.53;98535.38;5188598;28;20205;-60
2021/03/18 01:43:08;;;;;;;16.37;14.40;;;1.30;99.90;;;1.99;89.92;98536.53;5190758;28;20190;-57
2021/03/18 01:45:40;;;;;;;19.60;17.57;;;1.20;99.90;;;2.18;89.79;98537.66;5206428;28;20229;-58
2021/03/18 01:48:13;;;;;;;19.23;17.23;;;1.30;99.90;;;1.99;90.04;98539.06;5204170;28;20221;-59
2021/03/18 01:50:46;;;;;;;20.17;18.07;;;1.20;99.90;;;1.96;90.35;98546.31;5206069;28;20209;-57
2021/03/18 01:53:20;;;;;;;21.77;18.27;;;1.20;99.90;;;2.01;90.49;98541.00;5200475;28;20198;-59
2021/03/18 01:55:56;;;;;;;20.87;18.53;;;1.20;99.90;;;2.00;90.79;98544.28;5197938;28;20206;-59
2021/03/18 01:58:28;;;;;;;21.63;19.13;;;1.20;99.90;;;2.20;90.50;98542.84;5199500;28;20302;-57
2021/03/18 02:01:04;;;;;;;20.03;17.97;;;1.30;99.90;;;2.22;90.40;98547.28;5185563;28;20229;-60
2021/03/18 02:03:37;;;;;;;22.23;18.17;;;1.30;99.90;;;2.22;90.70;98542.25;5192260;28;20197;-58
2021/03/18 02:06:10;;;;;;;21.50;18.90;;;1.30;99.90;;;2.16;90.34;98543.28;5205687;28;20229;-57
2021/03/18 02:08:42;;;;;;;25.67;19.97;;;1.30;99.90;;;2.12;90.87;98541.16;5195399;28;20208;-58
2021/03/18 02:11:14;;;;;;;22.73;20.30;;;1.30;99.90;;;2.13;91.46;98546.38;5193214;28;20190;-59
2021/03/18 02:13:46;;;;;;;26.70;21.33;;;1.30;99.90;;;2.16;90.39;98539.13;5205758;28;20681;-58
2021/03/18 02:16:18;;;;;;;23.63;20.40;;;1.30;99.90;;;2.21;90.65;98534.56;5198806;28;20191;-57
2021/03/18 02:19:03;;;;;;;24.40;20.00;;;1.30;99.90;;;2.22;90.17;98541.38;5185311;28;20204;-58
2021/03/18 02:22:28;;;;;;;23.10;19.83;;;1.40;99.90;;;2.21;89.86;98539.59;5186119;28;20198;-58
2021/03/18 02:25:04;;;;;;;23.23;18.43;;;1.30;99.90;;;2.10;90.42;98538.50;5185050;28;20591;-57
2021/03/18 02:28:36;;;;;;;20.33;18.17;;;1.30;99.90;;;2.06;90.68;98536.44;5184405;28;20231;-58
2021/03/18 02:31:12;;;;;;;21.20;18.77;;;1.30;99.90;;;2.03;91.25;98546.19;5100352;29;20236;-58
2021/03/18 02:34:40;;;;;;;22.30;18.83;;;1.30;99.90;;;2.05;90.72;98539.69;5102408;29;20230;-57
2021/03/18 02:37:15;;;;;;;20.30;17.97;;;1.30;99.90;;;2.06;91.72;98538.03;5184648;28;20234;-57
2021/03/18 02:39:53;;;;;;;22.90;19.30;;;1.30;99.90;;;2.14;90.76;98543.13;5187094;28;20226;-60
2021/03/18 02:42:27;;;;;;;22.83;18.80;;;1.30;99.90;;;2.08;90.87;98537.47;5185982;28;20294;-57
2021/03/18 02:45:03;;;;;;;23.63;18.67;;;1.30;99.90;;;2.09;90.85;98539.25;5205121;28;20209;-56
2021/03/18 02:47:37;;;;;;;25.03;18.97;;;1.30;99.90;;;2.11;90.38;98545.31;5195822;28;20227;-55
2021/03/18 02:50:12;;;;;;;23.87;20.07;;;1.30;99.90;;;2.11;90.33;98542.81;5185079;28;20633;-57
2021/03/18 02:52:52;;;;;;;23.93;20.40;;;1.30;99.90;;;2.08;90.98;98539.97;5194245;28;20229;-57
2021/03/18 02:55:24;;;;;;;25.70;19.53;;;1.30;99.90;;;2.08;90.70;98544.13;5191532;28;20687;-57
2021/03/18 02:57:58;;;;;;;22.77;19.50;;;1.30;99.90;;;2.10;90.44;98541.03;5193823;28;20230;-57
2021/03/18 03:00:30;;;;;;;28.83;19.67;;;1.40;99.90;;;2.14;90.79;98543.13;5187837;28;20329;-58
2021/03/18 03:03:05;;;;;;;27.20;19.23;;;1.40;99.90;;;2.17;91.15;98548.47;5195886;28;20200;-58
2021/03/18 03:05:38;;;;;;;27.10;21.20;;;1.40;99.90;;;2.24;90.57;98555.03;5195649;28;20198;-57
2021/03/18 03:08:12;;;;;;;25.87;20.10;;;1.40;99.90;;;2.20;90.38;98551.31;5187383;28;20328;-59
2021/03/18 03:10:45;;;;;;;24.77;19.70;;;1.40;99.90;;;2.21;90.89;98545.53;5188849;28;20199;-55
2021/03/18 03:13:19;;;;;;;24.50;20.03;;;1.40;99.90;;;2.22;90.70;98559.03;5189061;28;20212;-57
2021/03/18 03:15:51;;;;;;;25.10;20.40;;;1.40;99.90;;;2.27;90.04;98556.97;5194757;28;20262;-59
2021/03/18 03:18:24;;;;;;;25.57;21.27;;;1.40;99.90;;;2.32;89.97;98564.25;5188475;28;20220;-57
2021/03/18 03:20:59;;;;;;;26.30;20.83;;;1.50;99.90;;;2.28;90.22;98567.19;5188751;28;20575;-58
2021/03/18 03:23:34;;;;;;;27.37;20.83;;;1.50;99.90;;;2.30;90.87;98564.84;5188424;28;20280;-58
2021/03/18 03:26:06;;;;;;;25.43;20.43;;;1.50;99.90;;;2.29;90.52;98558.00;5188001;28;20232;-58
2021/03/18 03:28:40;;;;;;;24.30;20.47;;;1.50;99.90;;;2.32;91.00;98563.34;5188178;28;20229;-58
2021/03/18 03:31:12;;;;;;;24.97;21.30;;;1.50;99.90;;;2.17;89.62;98562.69;5188659;28;20206;-58
2021/03/18 03:33:56;;;;;;;23.40;20.57;;;1.40;99.90;;;2.22;89.69;98562.44;5188653;28;20695;-60
2021/03/18 03:36:28;;;;;;;23.30;20.17;;;1.40;99.90;;;2.22;90.46;98562.44;5188596;28;20195;-61
2021/03/18 03:39:04;;;;;;;26.17;21.77;;;1.40;99.90;;;2.28;90.42;98551.19;5188236;28;20655;-58
2021/03/18 03:41:36;;;;;;;28.53;20.93;;;1.50;99.90;;;2.23;90.34;98558.28;5188504;28;20673;-58
2021/03/18 03:44:09;;;;;;;24.17;21.13;;;1.40;99.90;;;2.23;89.49;98554.16;5188739;28;20212;-60
2021/03/18 03:46:41;;;;;;;24.80;21.17;;;1.40;99.90;;;2.14;90.12;98558.25;5187452;28;20222;-57
2021/03/18 03:49:14;;;;;;;27.50;21.90;;;1.30;99.90;;;2.11;90.31;98557.06;5188202;28;20228;-59
2021/03/18 03:51:54;;;;;;;26.03;20.50;;;1.20;99.90;;;2.07;90.05;98555.84;5187718;28;20198;-58
2021/03/18 03:54:30;;;;;;;24.20;20.90;;;1.30;99.90;;;2.05;89.43;98558.97;5187935;28;20200;-57
2021/03/18 03:57:09;;;;;;;24.93;21.70;;;1.30;99.90;;;2.07;90.47;98555.84;5187546;28;20214;-58
2021/03/18 03:59:44;;;;;;;24.73;20.87;;;1.30;99.90;;;2.06;90.05;98554.09;5187741;28;20475;-58
2021/03/18 04:02:17;;;;;;;25.63;21.60;;;1.30;99.90;;;2.09;89.78;98559.44;5187982;28;20202;-57
2021/03/18 04:04:51;;;;;;;29.27;22.30;;;1.30;99.90;;;2.07;90.60;98560.00;5187749;28;20194;-57
2021/03/18 04:07:29;;;;;;;27.33;21.60;;;1.30;99.90;;;1.99;89.81;98571.84;5187282;28;20233;-57
2021/03/18 04:10:05;;;;;;;29.40;22.40;;;1.20;99.90;;;2.00;89.48;98568.56;5187766;28;20620;-59
2021/03/18 04:12:40;;;;;;;25.17;20.40;;;1.20;99.90;;;2.04;89.74;98570.69;5187809;28;20201;-58
2021/03/18 04:15:16;;;;;;;25.87;21.57;;;1.30;99.90;;;2.04;90.22;98565.63;5188006;28;20201;-59
2021/03/18 04:17:51;;;;;;;28.23;22.13;;;1.30;99.90;;;2.07;89.41;98567.56;5187198;28;20219;-58
2021/03/18 04:20:25;;;;;;;25.33;21.17;;;1.20;99.90;;;2.05;89.72;98566.53;5187406;28;20205;-56
2021/03/18 04:23:00;;;;;;;27.93;22.40;;;1.20;99.90;;;1.93;90.50;98571.22;5187316;28;20688;-59
2021/03/18 04:25:34;;;;;;;23.47;20.60;;;1.20;99.90;;;1.91;89.96;98567.63;5187179;28;20206;-58
2021/03/18 04:28:09;;;;;;;28.13;22.53;;;1.20;99.90;;;2.02;89.77;98564.56;5186830;28;20227;-59
2021/03/18 04:30:42;;;;;;;25.00;22.30;;;1.20;99.90;;;2.05;89.72;98562.38;5187348;28;20207;-57
2021/03/18 04:33:15;;;;;;;29.60;23.50;;;1.20;99.90;;;2.06;89.32;98569.22;5187096;28;20210;-56
2021/03/18 04:35:48;;;;;;;27.43;22.97;;;1.20;99.90;;;2.03;88.90;98562.22;5187236;28;20297;-58
2021/03/18 04:38:20;;;;;;;25.40;22.60;;;1.20;99.90;;;2.11;88.83;98560.47;5166922;28;20594;-56
2021/03/18 04:40:54;;;;;;;27.30;23.63;;;1.20;99.90;;;1.99;89.11;98566.78;5183832;28;20227;-57
2021/03/18 04:43:27;;;;;;;24.43;21.83;;;1.20;99.90;;;1.92;89.44;98565.28;5187231;28;20466;-56
2021/03/18 04:46:01;;;;;;;25.37;21.63;;;1.10;99.90;;;1.92;90.66;98565.28;5187203;28;20306;-57
2021/03/18 04:48:35;;;;;;;27.37;23.47;;;1.20;99.90;;;1.98;89.67;98565.03;5228631;22;20242;-64
2021/03/18 04:51:08;;;;;;;27.33;22.27;;;1.20;99.90;;;2.06;90.09;98561.66;5229195;28;20203;-64
2021/03/18 04:53:40;;;;;;;27.53;23.43;;;1.20;99.90;;;2.04;90.32;98570.69;5229511;28;20210;-64
2021/03/18 04:56:15;;;;;;;28.23;22.77;;;1.20;99.90;;;2.02;89.74;98567.09;5229677;28;20205;-64
2021/03/18 04:58:48;;;;;;;28.27;23.97;;;1.20;99.90;;;2.06;89.11;98559.13;5212203;28;20224;-64
2021/03/18 05:01:23;;;;;;;27.80;23.33;;;1.20;99.90;;;2.08;89.47;98559.25;5200646;28;20199;-64
2021/03/18 05:03:56;;;;;;;30.13;24.83;;;1.30;99.90;;;2.08;89.65;98561.78;5201718;28;20628;-64
2021/03/18 05:06:29;;;;;;;28.53;24.00;;;1.30;99.90;;;2.06;89.86;98558.22;5198390;28;20219;-64
2021/03/18 05:09:03;;;;;;;30.30;24.37;;;1.30;99.90;;;1.79;89.85;98554.69;5193709;28;20216;-64
2021/03/18 05:11:38;;;;;;;28.90;24.00;;;1.10;99.90;;;1.78;89.09;98551.28;5207914;28;20203;-64
2021/03/18 05:14:11;;;;;;;29.03;22.67;;;1.00;99.90;;;1.72;90.00;98555.69;5209390;28;20685;-64
2021/03/18 05:16:43;;;;;;;27.07;23.37;;;0.90;99.90;;;1.75;89.10;98553.50;5196291;28;20204;-64
2021/03/18 05:19:17;;;;;;;33.63;24.30;;;0.90;99.90;;;1.82;89.06;98551.59;5188189;28;20262;-64
2021/03/18 05:21:50;;;;;;;30.67;24.40;;;1.00;99.90;;;1.80;89.70;98557.38;5188511;28;20201;-64
2021/03/18 05:24:23;;;;;;;29.40;24.40;;;1.00;99.90;;;1.79;89.32;98553.06;5188514;28;20199;-64
2021/03/18 05:26:56;;;;;;;27.57;23.33;;;1.00;99.90;;;1.81;89.62;98563.31;5201882;28;20222;-64
2021/03/18 05:29:28;;;;;;;30.27;24.40;;;1.10;99.90;;;1.78;89.88;98561.34;5204520;28;20197;-64
2021/03/18 05:32:00;;;;;;;28.43;23.77;;;1.00;99.90;;;1.86;90.44;98554.59;5208177;28;20577;-64
2021/03/18 05:34:33;;;;;;;28.87;23.43;;;1.00;99.90;;;1.84;89.66;98552.66;5204560;28;20195;-64
2021/03/18 05:37:05;;;;;;;27.57;23.13;;;1.00;99.90;;;1.89;90.13;98559.94;5186165;28;20204;-64
2021/03/18 05:39:37;;;;;;;29.23;23.73;;;1.10;99.90;;;1.95;90.10;98562.19;5200241;28;20201;-64
2021/03/18 05:42:10;;;;;;;29.63;24.40;;;1.10;99.90;;;1.93;89.73;98563.66;5196287;28;20200;-64
2021/03/18 05:44:42;;;;;;;27.67;22.97;;;1.10;99.90;;;1.78;89.32;98556.31;5196324;28;20206;-64
2021/03/18 05:47:15;;;;;;;30.47;25.20;;;0.90;99.90;;;1.74;89.75;98548.28;5189631;28;20231;-64
2021/03/18 05:49:48;;;;;;;29.17;23.10;;;0.90;99.90;;;1.80;89.98;98558.97;5201320;28;20200;-64
2021/03/18 05:52:20;;;;;;;29.00;23.47;;;1.00;99.90;;;1.76;90.30;98556.91;5189467;28;20547;-64
2021/03/18 05:54:53;;;;;;;29.33;24.17;;;1.00;99.90;;;1.81;89.75;98565.81;5197461;28;20201;-64
2021/03/18 05:57:27;;;;;;;25.80;22.97;;;1.00;99.90;;;1.70;89.31;98564.72;5199136;28;20695;-64
2021/03/18 06:00:00;;;;;;;28.03;23.97;;;1.00;99.90;;;1.63;90.75;98559.81;5204874;28;20195;-64
2021/03/18 06:02:33;;;;;;;30.63;24.87;;;0.90;99.90;;;1.78;89.88;98561.34;5194172;28;20211;-64
2021/03/18 06:05:09;;;;;;;29.60;23.83;;;0.90;99.90;;;1.82;89.65;98561.66;5206260;28;20253;-64
2021/03/18 06:07:43;;;;;;;29.97;24.23;;;0.90;99.90;;;1.95;90.29;98560.56;5189824;28;20221;-64
2021/03/18 06:10:17;;;;;;;31.03;24.53;;;1.10;99.90;;;1.90;89.43;98568.38;5196379;28;20207;-64
2021/03/18 06:12:53;;;;;;;29.77;23.90;;;1.00;99.90;;;1.86;88.96;98566.28;5202643;28;20241;-64
2021/03/18 06:15:25;;;;;;;28.50;23.77;;;1.00;99.90;;;1.89;89.26;98566.59;5203034;28;20229;-64
2021/03/18 06:17:57;;;;;;;29.37;23.10;;;1.00;99.90;;;1.88;89.43;98572.38;5187406;28;20220;-64
2021/03/18 06:20:31;;;;;;;29.90;24.13;;;1.00;99.90;;;1.91;90.17;98568.53;5190049;28;20655;-64
2021/03/18 06:23:09;;;;;;;31.73;24.37;;;1.10;99.90;;;1.94;89.60;98567.94;5204307;28;20641;-64
2021/03/18 06:25:41;;;;;;;31.97;24.40;;;1.20;99.90;;;1.94;89.37;98573.88;5190152;28;20234;-63
2021/03/18 06:28:20;;;;;;;29.30;24.10;;;1.20;99.90;;;2.04;90.34;98570.69;5204676;28;20299;-63
2021/03/18 06:31:05;;;;;;;30.27;24.80;;;1.20;99.90;;;2.10;89.72;98571.28;5202883;28;20193;-63
2021/03/18 06:33:40;;;;;;;29.87;24.73;;;1.20;99.90;;;2.08;89.58;98566.81;5205444;28;20679;-63
2021/03/18 06:36:32;;;;;;;33.43;24.93;;;1.20;99.90;;;2.09;89.04;98564.47;5199949;28;20198;-63
2021/03/18 06:39:07;;;;;;;32.70;25.03;;;1.20;99.90;;;2.12;88.26;98567.31;5206609;28;20216;-61
2021/03/18 06:41:42;;;;;;;30.80;24.93;;;1.20;99.90;;;2.21;88.37;98558.13;5190180;28;20204;-62
2021/03/18 06:44:21;;;;;;;29.50;24.27;;;1.30;99.90;;;2.33;87.75;98565.16;5202615;28;20201;-61
2021/03/18 06:46:56;;;;;;;29.83;25.67;;;1.40;99.90;;;2.36;88.90;98557.88;5202081;28;20222;-61
2021/03/18 06:49:28;;;;;;;28.63;23.17;;;1.50;99.90;;;2.30;87.75;98558.16;5189090;28;20223;-62
2021/03/18 06:52:03;;;;;;;28.77;23.43;;;1.40;99.90;;;2.29;88.23;98563.03;5205667;28;20207;-62
2021/03/18 06:54:38;;;;;;;30.50;24.43;;;1.40;99.90;;;2.33;87.54;98560.97;5203583;28;20624;-62
2021/03/18 06:57:11;;;;;;;28.63;23.03;;;1.40;99.90;;;2.35;87.97;98564.56;5197438;28;20651;-61
2021/03/18 06:59:44;;;;;;;28.20;22.93;;;1.40;99.90;;;2.46;87.91;98568.13;5206590;28;20240;-61
2021/03/18 07:02:18;;;;;;;27.63;22.90;;;1.60;99.90;;;2.42;87.81;98571.09;5204690;28;20207;-61
2021/03/18 07:04:53;;;;;;;28.37;22.83;;;1.50;99.90;;;2.46;88.42;98568.13;5191806;28;20684;-60
2021/03/18 07:07:26;;;;;;;28.27;23.10;;;1.60;99.90;;;2.22;87.20;98572.50;5185246;28;20225;-61
2021/03/18 07:09:58;;;;;;;28.07;22.93;;;1.40;99.90;;;2.23;87.61;98568.34;5197715;28;20203;-62
2021/03/18 07:12:32;;;;;;;27.80;23.37;;;1.40;99.90;;;2.49;87.55;98568.47;5206085;28;20300;-62
2021/03/18 07:15:18;;;;;;;26.23;22.53;;;1.50;99.90;;;2.77;86.66;98571.16;5196530;28;20738;-62
2021/03/18 07:18:00;;;;;;;27.03;22.40;;;1.60;99.90;;;2.98;85.31;98563.19;5205019;28;20309;-61
2021/03/18 07:20:32;;;;;;;24.80;22.03;;;1.70;99.90;;;3.06;85.22;98561.38;5205911;28;20650;-61
2021/03/18 07:23:14;;;;;;;24.93;21.03;;;1.80;99.90;;;3.10;83.90;98559.31;5206646;28;20285;-61
2021/03/18 07:25:48;;;;;;;24.67;21.60;;;1.80;99.90;;;3.09;84.00;98562.59;5200132;28;20292;-61
2021/03/18 07:28:24;;;;;;;25.67;21.20;;;1.80;99.90;;;3.06;84.16;98562.31;5206051;28;20239;-60
2021/03/18 07:30:57;;;;;;;25.43;21.77;;;1.80;99.90;;;3.23;83.75;98565.53;5200150;28;20292;-61
2021/03/18 07:33:31;;;;;;;26.53;22.83;;;2.00;99.90;;;3.49;82.13;98561.38;5204735;28;20197;-61
2021/03/18 07:36:05;;;;;;;27.13;23.73;;;2.30;99.90;;;3.65;82.23;98560.31;5196957;28;20622;-60
2021/03/18 07:38:39;;;;;;;25.07;21.27;;;2.40;99.90;;;3.86;80.63;98559.78;5205568;28;20323;-61
2021/03/18 07:41:14;;;;;;;24.83;21.37;;;2.40;99.90;;;3.75;81.35;98561.31;5202806;28;20212;-62
2021/03/18 07:43:47;;;;;;;23.73;20.70;;;2.40;99.90;;;3.64;80.57;98561.06;5205516;28;20224;-59
2021/03/18 07:46:22;;;;;;;23.90;21.40;;;2.30;99.90;;;3.67;81.13;98563.88;5205351;28;20194;-58
2021/03/18 07:48:58;;;;;;;24.00;20.63;;;2.40;99.90;;;3.57;81.30;98562.09;5205143;28;20248;-59
2021/03/18 07:51:38;;;;;;;23.43;20.47;;;2.40;99.90;;;3.47;81.92;98559.44;5191618;28;20199;-61
2021/03/18 07:54:17;;;;;;;24.73;21.23;;;2.40;99.90;;;3.45;82.42;98556.75;5209699;28;20212;-62
2021/03/18 07:56:50;;;;;;;23.60;20.93;;;2.40;99.90;;;3.67;81.67;98564.75;5192127;28;20222;-62
2021/03/18 07:59:30;;;;;;;22.87;20.47;;;2.50;99.90;;;3.98;79.45;98555.00;5189393;28;20316;-61
2021/03/18 08:02:16;;;;;;;23.93;21.33;;;2.40;99.90;;;4.04;79.49;98556.47;5189652;28;20199;-60
2021/03/18 08:04:51;;;;;;;23.43;20.20;;;2.60;99.90;;;4.24;78.61;98557.44;5189448;28;20676;-61
2021/03/18 08:07:46;;;;;;;22.97;20.63;;;2.80;99.90;;;4.31;78.83;98547.09;5205450;28;20221;-61
2021/03/18 08:10:38;;;;;;;21.47;19.27;;;3.00;99.90;;;4.36;78.37;98550.06;5201312;28;20234;-60
2021/03/18 08:13:10;;;;;;;25.70;22.07;;;3.00;99.90;;;4.56;76.87;98551.91;5205362;28;20204;-62
2021/03/18 08:15:46;;;;;;;22.77;20.33;;;2.90;99.90;;;4.48;77.31;98549.53;5189521;28;20201;-61
2021/03/18 08:18:51;;;;;;;22.60;20.00;;;3.00;99.90;;;4.62;77.28;98542.31;5207861;28;20230;-62
2021/03/18 08:21:36;;;;;;;22.43;19.50;;;3.30;99.90;;;4.88;76.69;98548.09;5210106;28;20649;-61
2021/03/18 08:24:10;;;;;;;21.00;18.83;;;3.70;99.90;;;5.26;75.27;98537.94;5198271;28;20205;-62
2021/03/18 08:26:47;;;;;;;24.07;19.73;;;3.80;99.90;;;5.23;75.38;98537.69;5205231;28;20269;-60
2021/03/18 08:29:31;;;;;;;21.10;18.90;;;3.90;99.90;;;5.57;73.59;98540.66;5192532;28;20264;-61
2021/03/18 08:32:05;;;;;;;20.77;18.03;;;4.10;99.90;;;5.76;73.36;98540.59;5201574;28;20202;-60
2021/03/18 08:34:49;;;;;;;19.73;17.73;;;4.40;99.90;;;5.82;71.94;98531.88;5200309;28;20656;-59
2021/03/18 08:37:38;;;;;;;19.80;17.80;;;4.40;99.90;;;5.82;70.10;98536.94;5207415;28;20224;-61
2021/03/18 08:40:28;;;;;;;19.80;17.80;;;4.10;99.90;;;5.97;70.51;98533.97;5191082;28;20206;-61
2021/03/18 08:43:03;;;;;;;20.97;18.77;;;4.40;99.90;;;5.98;70.79;98533.19;5201451;28;20534;-62
2021/03/18 08:45:41;;;;;;;22.03;18.23;;;4.60;99.90;;;6.50;68.30;98522.41;5208180;28;20660;-58
2021/03/18 08:48:20;;;;;;;20.77;18.60;;;5.20;99.90;;;6.49;69.04;98526.56;5207469;28;20214;-60
2021/03/18 08:50:59;;;;;;;20.30;17.77;;;5.70;99.90;;;6.76;67.94;98527.09;5194793;28;20249;-61
2021/03/18 08:53:38;;;;;;;19.70;17.27;;;5.60;99.90;;;6.75;67.21;98525.28;5188593;28;20202;-61
2021/03/18 08:56:10;;;;;;;19.83;17.37;;;5.30;99.90;;;6.95;68.32;98521.84;5192712;28;20602;-61
2021/03/18 08:58:54;;;;;;;19.83;17.93;;;5.40;99.90;;;7.27;66.93;98523.56;5200548;28;20211;-62
2021/03/18 09:01:26;;;;;;;19.20;17.30;;;6.00;99.90;;;7.45;65.11;98520.84;5192300;28;20209;-61
2021/03/18 09:04:00;;;;;;;17.43;15.73;;;6.30;99.90;;;7.80;64.05;98520.19;5188916;28;20195;-61
2021/03/18 09:06:34;;;;;;;18.97;17.03;;;6.40;99.90;;;7.57;65.22;98513.31;5198746;28;20204;-63
2021/03/18 09:09:07;;;;;;;17.20;15.40;;;6.30;99.90;;;7.76;64.42;98509.69;5194963;28;20222;-62
2021/03/18 09:11:39;;;;;;;17.27;15.57;;;6.60;99.90;;;8.10;62.60;98511.53;5205374;28;20208;-61
2021/03/18 09:14:16;;;;;;;18.70;16.73;;;6.80;99.90;;;8.28;61.40;98509.50;5204434;28;20333;-59
2021/03/18 09:16:49;;;;;;;16.23;14.53;;;7.20;99.90;;;8.50;59.51;98499.31;5188818;28;20217;-62
2021/03/18 09:19:21;;;;;;;17.07;15.40;;;7.30;99.90;;;8.56;58.08;98499.75;5197269;28;20190;-61
2021/03/18 09:21:54;;;;;;;16.53;15.03;;;7.00;99.90;;;8.76;59.51;98500.38;5197521;28;20210;-61
2021/03/18 09:24:34;;;;;;;14.57;13.17;;;7.50;99.90;;;9.08;57.90;98496.75;5198403;28;20684;-61
2021/03/18 09:27:08;;;;;;;15.13;13.80;;;7.90;99.90;;;9.31;55.90;98491.66;5193237;28;20698;-62
2021/03/18 09:29:42;;;;;;;14.33;13.03;;;8.10;99.90;;;9.38;58.45;98490.41;5200749;28;20580;-62
2021/03/18 09:32:17;;;;;;;14.33;13.03;;;8.30;99.90;;;9.70;55.82;98487.63;5208205;28;20204;-62
2021/03/18 09:34:50;;;;;;;13.20;12.00;;;8.60;99.90;;;9.64;54.34;98482.97;5203743;28;20194;-62
2021/03/18 09:37:39;;;;;;;12.50;11.30;;;8.30;99.90;;;9.76;52.83;98482.94;5207803;28;20236;-62
2021/03/18 09:40:13;;;;;;;13.95;12.55;;;8.30;99.90;;;9.78;52.17;98476.25;5207389;28;20201;-61
2021/03/18 09:42:46;;;;;;;14.50;13.00;;;8.40;99.90;;;9.76;53.90;98480.38;5205632;28;20220;-62
2021/03/18 09:45:20;;;;;;;14.23;12.90;;;8.50;99.90;;;9.88;54.80;98470.16;5202255;28;20649;-61
2021/03/18 09:47:52;;;;;;;14.00;12.70;;;8.50;99.90;;;9.68;55.18;98473.84;5199600;28;20313;-62
2021/03/18 09:50:27;;;;;;;14.77;13.37;;;8.10;99.90;;;9.29;55.17;98471.91;5200513;28;20262;-61
2021/03/18 09:53:11;;;;;;;15.50;13.80;;;7.50;99.90;;;8.89;55.59;98458.81;5195221;28;20197;-62
2021/03/18 09:55:43;;;;;;;12.70;11.40;;;6.90;99.90;;;8.54;55.97;98464.75;5193957;28;20220;-62
2021/03/18 09:58:18;;;;;;;12.07;11.07;;;6.70;99.90;;;8.12;57.10;98458.16;5196184;28;20213;-61
2021/03/18 10:00:50;;;;;;;9.53;8.73;;;6.70;99.90;;;7.62;57.13;98463.69;5207748;28;20664;-59
2021/03/18 10:03:22;;;;;;;10.50;9.43;;;6.40;99.90;;;7.72;54.92;98456.75;5194679;28;20528;-60
2021/03/18 10:06:08;;;;;;;9.33;8.43;;;6.20;99.90;;;7.74;55.31;98467.94;5188572;28;20225;-59
2021/03/18 10:08:41;;;;;;;10.30;9.40;;;6.10;99.90;;;7.89;55.82;98464.03;5197031;28;20684;-62
2021/03/18 10:11:15;;;;;;;11.57;10.57;;;6.10;99.90;;;7.89;56.52;98464.03;5204653;28;20289;-62
2021/03/18 10:13:47;;;;;;;12.53;11.23;;;6.10;99.90;;;7.74;57.72;98462.88;5198630;28;20204;-62
2021/03/18 10:16:19;;;;;;;12.37;11.07;;;6.00;99.90;;;7.53;58.96;98468.06;5192795;28;20230;-62
2021/03/18 10:18:52;;;;;;;13.30;12.00;;;5.90;99.90;;;7.22;59.03;98464.75;5202041;28;20217;-62
2021/03/18 10:21:24;;;;;;;13.33;11.30;;;5.50;99.90;;;6.99;60.31;98452.75;5205930;28;20293;-63
2021/03/18 10:23:57;;;;;;;12.17;11.00;;;5.50;99.90;;;6.59;62.69;98461.31;5204538;28;20208;-62
2021/03/18 10:26:29;;;;;;;12.60;11.03;;;5.40;99.90;;;6.28;63.43;98458.78;5204828;28;20201;-62
2021/03/18 10:29:04;;;;;;;10.13;9.13;;;5.20;99.90;;;6.21;61.37;98461.56;5203216;28;20768;-61
2021/03/18 10:31:39;;;;;;;12.37;10.30;;;5.10;99.90;;;6.01;63.18;98455.72;5190651;28;20658;-62
2021/03/18 10:34:25;;;;;;;10.53;9.70;;;5.00;99.90;;;6.10;63.61;98455.59;5188640;28;20202;-62
2021/03/18 10:36:57;;;;;;;11.17;10.00;;;4.90;99.90;;;6.15;63.43;98449.25;5203657;28;20236;-62
2021/03/18 10:39:46;;;;;;;11.30;10.27;;;4.90;99.90;;;6.05;63.05;98452.66;5200786;28;20591;-62
2021/03/18 10:42:29;;;;;;;11.20;10.23;;;5.00;99.90;;;6.21;63.91;98452.31;5207860;28;20664;-62
2021/03/18 10:45:17;;;;;;;12.33;11.17;;;5.10;99.90;;;6.23;64.27;98445.69;5216435;28;20198;-62
2021/03/18 10:47:52;;;;;;;11.77;10.67;;;5.20;99.90;;;6.25;64.18;98444.19;5213037;28;20220;-62
2021/03/18 10:50:28;;;;;;;11.37;10.27;;;5.20;99.90;;;6.44;64.22;98440.59;5230241;22;20687;-57
2021/03/18 10:53:04;;;;;;;11.27;10.17;;;5.30;99.90;;;6.49;63.96;98431.72;5221590;28;20199;-57
2021/03/18 10:55:40;;;;;;;11.53;10.40;;;5.30;99.90;;;6.40;64.29;98429.31;5236012;28;20200;-57